Time;durP1;ratioP1;P1;durP2;ratioP2;P2;SDS_P1;SDS_P2;PMS_P1;PMS_P2;Temp;Humidity;BMP_temperature;BMP_pressure;BME280_temperature;BME280_humidity;BME280_pressure;Samples;Min_cycle;Max_cycle;Signal;HPM_P1;HPM_P2
2021/09/06 00:01:14;;;;;;;26.15;14.43;;;13.50;99.00;;;;;;4992866;28;20030;-73
2021/09/06 00:03:40;;;;;;;28.60;14.65;;;13.40;98.90;;;;;;4991627;28;20034;-73
2021/09/06 00:06:05;;;;;;;28.05;15.27;;;13.40;99.00;;;;;;4993007;28;20040;-72
2021/09/06 00:08:31;;;;;;;25.77;14.75;;;13.40;99.00;;;;;;4992583;28;20372;-72
2021/09/06 00:11:05;;;;;;;30.77;15.30;;;13.40;99.00;;;;;;4992545;28;20027;-72
2021/09/06 00:13:32;;;;;;;26.23;14.55;;;13.40;98.90;;;;;;4992665;28;20034;-72
2021/09/06 00:15:57;;;;;;;32.95;15.38;;;13.30;98.90;;;;;;4992505;28;20022;-72
2021/09/06 00:18:25;;;;;;;25.35;13.63;;;13.40;98.90;;;;;;4992590;28;20503;-72
2021/09/06 00:20:51;;;;;;;25.47;14.20;;;13.40;98.90;;;;;;4992544;28;20046;-73
2021/09/06 00:23:16;;;;;;;32.03;15.18;;;13.30;98.90;;;;;;4992543;28;20291;-73
2021/09/06 00:25:42;;;;;;;26.33;14.43;;;13.40;98.90;;;;;;4991029;28;20040;-73
2021/09/06 00:28:07;;;;;;;27.92;15.02;;;13.40;98.90;;;;;;4992361;28;20065;-73
2021/09/06 00:30:34;;;;;;;27.13;14.30;;;13.40;98.80;;;;;;4992430;28;20045;-72
2021/09/06 00:33:00;;;;;;;26.33;14.38;;;13.40;98.80;;;;;;4991592;28;20053;-72
2021/09/06 00:35:25;;;;;;;27.13;13.60;;;13.40;98.90;;;;;;4992326;28;20038;-72
2021/09/06 00:37:51;;;;;;;36.33;15.57;;;13.30;98.80;;;;;;4992150;28;20335;-72
2021/09/06 00:40:16;;;;;;;27.73;15.32;;;13.30;98.80;;;;;;4992122;28;20452;-73
2021/09/06 00:42:42;;;;;;;26.42;14.02;;;13.30;98.90;;;;;;4992040;28;20046;-73
2021/09/06 00:45:08;;;;;;;30.00;15.05;;;13.20;98.90;;;;;;4992322;28;20038;-73
2021/09/06 00:47:35;;;;;;;27.40;14.52;;;13.20;99.00;;;;;;4992271;28;20030;-73
2021/09/06 00:50:06;;;;;;;30.70;15.20;;;13.20;98.90;;;;;;4991964;28;20027;-74
2021/09/06 00:52:32;;;;;;;28.42;14.35;;;13.10;98.90;;;;;;4992045;28;20026;-73
2021/09/06 00:54:59;;;;;;;28.15;16.02;;;13.20;98.90;;;;;;4992030;28;20524;-73
2021/09/06 00:57:24;;;;;;;25.48;14.25;;;13.10;98.80;;;;;;4992068;28;20026;-74
2021/09/06 00:59:50;;;;;;;32.65;16.52;;;13.10;98.90;;;;;;4992261;28;20109;-72
2021/09/06 01:02:16;;;;;;;28.52;15.13;;;13.00;98.90;;;;;;4990832;28;20376;-73
2021/09/06 01:04:42;;;;;;;33.97;15.85;;;13.00;99.00;;;;;;4990953;28;20038;-72
2021/09/06 01:07:08;;;;;;;26.73;15.00;;;13.00;99.00;;;;;;4990771;28;20030;-74
2021/09/06 01:09:34;;;;;;;30.55;14.73;;;12.90;99.00;;;;;;4991963;28;20035;-73
2021/09/06 01:11:59;;;;;;;28.17;14.65;;;12.90;99.00;;;;;;4992441;28;20412;-73
2021/09/06 01:14:25;;;;;;;32.10;14.13;;;12.90;99.00;;;;;;4991992;28;20097;-73
2021/09/06 01:16:51;;;;;;;29.70;14.82;;;12.90;99.00;;;;;;4991787;28;20066;-73
2021/09/06 01:19:16;;;;;;;29.98;14.38;;;12.80;99.20;;;;;;4991880;28;20034;-73
2021/09/06 01:21:42;;;;;;;26.90;15.48;;;12.80;98.90;;;;;;4991568;28;20061;-73
2021/09/06 01:24:08;;;;;;;24.17;13.48;;;12.80;99.00;;;;;;4992088;28;20471;-73
2021/09/06 01:26:33;;;;;;;26.42;14.43;;;12.90;99.00;;;;;;4992211;28;20492;-73
2021/09/06 01:28:59;;;;;;;31.45;16.33;;;12.90;99.00;;;;;;4991557;28;20603;-72
2021/09/06 01:31:24;;;;;;;27.30;14.63;;;12.80;99.20;;;;;;4991781;28;20615;-72
2021/09/06 01:33:50;;;;;;;31.50;15.18;;;12.80;98.90;;;;;;4990479;28;20065;-72
2021/09/06 01:36:15;;;;;;;31.88;14.50;;;12.80;99.00;;;;;;4991286;28;20034;-72
2021/09/06 01:38:41;;;;;;;29.30;15.18;;;12.90;98.90;;;;;;4993665;28;20030;-72
2021/09/06 01:41:07;;;;;;;29.98;15.80;;;12.80;99.10;;;;;;4995348;28;20109;-73
2021/09/06 01:43:32;;;;;;;30.80;15.05;;;12.80;98.90;;;;;;4994439;28;20026;-72
2021/09/06 01:45:58;;;;;;;37.88;15.10;;;12.70;98.90;;;;;;4995281;28;20027;-72
2021/09/06 01:48:23;;;;;;;33.30;15.90;;;12.70;99.00;;;;;;4995189;28;20088;-72
2021/09/06 01:50:49;;;;;;;28.40;15.10;;;12.80;99.00;;;;;;4995664;28;20019;-73
2021/09/06 01:53:15;;;;;;;31.30;15.63;;;12.70;98.90;;;;;;4994924;28;20034;-73
2021/09/06 01:55:40;;;;;;;31.30;15.20;;;12.70;98.90;;;;;;4994959;28;20105;-73
2021/09/06 01:58:06;;;;;;;34.70;15.95;;;12.70;99.00;;;;;;4995186;28;20121;-72
2021/09/06 02:00:32;;;;;;;33.60;16.15;;;12.70;99.00;;;;;;4995332;28;20085;-72
2021/09/06 02:02:58;;;;;;;28.02;15.43;;;12.60;99.00;;;;;;4995171;28;20492;-73
2021/09/06 02:05:23;;;;;;;27.20;14.10;;;12.70;99.00;;;;;;4993833;28;20026;-72
2021/09/06 02:07:51;;;;;;;29.67;14.98;;;12.80;98.90;;;;;;4994691;28;20056;-72
2021/09/06 02:10:17;;;;;;;27.27;14.55;;;12.80;98.80;;;;;;4994685;28;20030;-72
2021/09/06 02:12:43;;;;;;;31.92;15.40;;;12.70;98.70;;;;;;4994662;28;20033;-73
2021/09/06 02:15:09;;;;;;;28.23;14.50;;;12.70;98.70;;;;;;4994943;28;20522;-73
2021/09/06 02:17:34;;;;;;;29.02;15.07;;;12.70;98.70;;;;;;4995018;28;20373;-72
2021/09/06 02:20:00;;;;;;;24.80;13.85;;;12.60;98.70;;;;;;4994735;28;20141;-72
2021/09/06 02:22:26;;;;;;;30.30;15.70;;;12.60;98.80;;;;;;4994357;28;20120;-72
2021/09/06 02:24:51;;;;;;;31.02;14.48;;;12.50;98.70;;;;;;4993695;28;20116;-72
2021/09/06 02:27:17;;;;;;;26.17;14.75;;;12.50;98.80;;;;;;4994439;28;20037;-72
2021/09/06 02:29:42;;;;;;;27.40;14.68;;;12.40;98.80;;;;;;4995196;28;20023;-72
2021/09/06 02:32:08;;;;;;;30.50;14.73;;;12.40;98.90;;;;;;4994326;28;20026;-72
2021/09/06 02:34:34;;;;;;;29.10;14.38;;;12.40;98.90;;;;;;4993496;28;20101;-72
2021/09/06 02:36:59;;;;;;;29.80;15.30;;;12.40;99.20;;;;;;4994280;28;20042;-72
2021/09/06 02:39:25;;;;;;;24.13;14.07;;;12.40;99.00;;;;;;4994513;28;20065;-73
2021/09/06 02:41:51;;;;;;;24.42;13.73;;;12.40;99.00;;;;;;4994707;28;20073;-73
2021/09/06 02:44:17;;;;;;;30.80;14.98;;;12.40;99.00;;;;;;4994432;28;20487;-72
2021/09/06 02:46:42;;;;;;;30.83;14.48;;;12.30;98.80;;;;;;4994368;28;20042;-72
2021/09/06 02:49:08;;;;;;;30.23;16.40;;;12.30;99.10;;;;;;4993935;28;20038;-73
2021/09/06 02:51:33;;;;;;;29.48;15.20;;;12.20;99.30;;;;;;4994241;28;20117;-73
2021/09/06 02:53:59;;;;;;;33.28;16.50;;;12.30;99.60;;;;;;4994337;28;20028;-75
2021/09/06 02:56:25;;;;;;;33.33;16.58;;;12.20;99.70;;;;;;4994025;28;20031;-73
2021/09/06 02:58:50;;;;;;;35.58;16.88;;;12.20;99.80;;;;;;4994201;28;20376;-72
2021/09/06 03:01:16;;;;;;;34.00;17.08;;;12.30;99.90;;;;;;4993974;28;20026;-73
2021/09/06 03:03:41;;;;;;;37.80;17.35;;;12.30;99.90;;;;;;4994127;28;20026;-74
2021/09/06 03:06:08;;;;;;;46.25;19.30;;;12.40;99.90;;;;;;4994213;28;20019;-73
2021/09/06 03:08:34;;;;;;;40.25;17.10;;;12.40;99.90;;;;;;4992926;28;20105;-73
2021/09/06 03:11:01;;;;;;;34.42;16.50;;;12.40;99.90;;;;;;4993748;28;20118;-73
2021/09/06 03:13:27;;;;;;;34.50;16.52;;;12.40;99.90;;;;;;4993554;28;20030;-73
2021/09/06 03:15:53;;;;;;;34.67;16.75;;;12.50;99.90;;;;;;4992752;28;20121;-72
2021/09/06 03:18:18;;;;;;;38.40;17.65;;;12.70;99.90;;;;;;4993737;28;20022;-72
2021/09/06 03:20:44;;;;;;;38.47;18.48;;;12.70;99.90;;;;;;4993918;28;20230;-72
2021/09/06 03:23:09;;;;;;;42.33;17.85;;;12.70;99.90;;;;;;4993428;28;20046;-73
2021/09/06 03:25:36;;;;;;;40.90;18.60;;;12.80;99.90;;;;;;4993465;28;20046;-72
2021/09/06 03:28:02;;;;;;;41.45;19.17;;;12.70;99.90;;;;;;4993370;28;20048;-73
2021/09/06 03:30:27;;;;;;;37.72;17.80;;;12.70;99.90;;;;;;4993381;28;20053;-73
2021/09/06 03:32:53;;;;;;;34.47;16.52;;;12.80;99.90;;;;;;4993936;28;20061;-72
2021/09/06 03:35:18;;;;;;;36.53;16.75;;;12.70;99.90;;;;;;4993385;28;20089;-72
2021/09/06 03:37:44;;;;;;;40.20;17.75;;;12.80;99.90;;;;;;4993356;28;20027;-73
2021/09/06 03:40:10;;;;;;;41.13;18.42;;;12.70;99.90;;;;;;4993149;28;20038;-72
2021/09/06 03:42:36;;;;;;;41.10;17.77;;;12.70;99.90;;;;;;4993025;28;20101;-73
2021/09/06 03:45:02;;;;;;;39.50;17.25;;;12.70;99.90;;;;;;4993466;28;20022;-72
2021/09/06 03:47:27;;;;;;;32.58;16.15;;;12.70;99.90;;;;;;4992106;28;20065;-73
2021/09/06 03:49:53;;;;;;;30.13;15.52;;;12.70;99.90;;;;;;4993077;28;20062;-73
2021/09/06 03:52:19;;;;;;;28.52;14.30;;;12.70;99.90;;;;;;4993071;28;20034;-73
2021/09/06 03:54:44;;;;;;;24.50;13.50;;;12.70;99.90;;;;;;4993040;28;20041;-73
2021/09/06 03:57:10;;;;;;;26.17;13.38;;;12.70;99.90;;;;;;4992922;28;20432;-72
2021/09/06 03:59:35;;;;;;;22.23;11.02;;;12.70;99.90;;;;;;4993195;28;20463;-72
2021/09/06 04:02:01;;;;;;;17.45;10.60;;;12.70;99.90;;;;;;4992285;28;20114;-72
2021/09/06 04:04:27;;;;;;;20.60;10.93;;;12.70;99.90;;;;;;4992612;28;20427;-72
2021/09/06 04:06:53;;;;;;;19.55;11.65;;;12.70;99.90;;;;;;4992595;28;20456;-72
2021/09/06 04:09:18;;;;;;;17.60;10.15;;;12.70;99.90;;;;;;4992614;28;20026;-73
2021/09/06 04:11:44;;;;;;;21.95;11.23;;;12.70;99.90;;;;;;4993061;28;20088;-72
2021/09/06 04:14:15;;;;;;;25.60;11.43;;;12.50;99.90;;;;;;4992450;28;20026;-72
2021/09/06 04:16:40;;;;;;;23.45;11.88;;;12.50;99.90;;;;;;4992464;28;20037;-73
2021/09/06 04:19:06;;;;;;;25.85;10.85;;;12.50;99.90;;;;;;4992635;28;20035;-72
2021/09/06 04:21:31;;;;;;;21.70;10.60;;;12.40;99.90;;;;;;4991958;28;20042;-73
2021/09/06 04:23:57;;;;;;;18.67;10.40;;;12.30;99.90;;;;;;4993046;28;20030;-73
2021/09/06 04:26:23;;;;;;;19.90;9.88;;;12.30;99.90;;;;;;4992193;28;20037;-72
2021/09/06 04:28:50;;;;;;;19.05;9.50;;;12.20;99.90;;;;;;5007792;28;20057;-72
2021/09/06 04:31:16;;;;;;;17.73;9.25;;;12.10;99.90;;;;;;4992217;28;20046;-73
2021/09/06 04:33:41;;;;;;;19.33;9.23;;;12.10;99.90;;;;;;4992308;28;20052;-73
2021/09/06 04:36:07;;;;;;;21.38;10.48;;;12.10;99.90;;;;;;4992874;28;20026;-72
2021/09/06 04:38:32;;;;;;;18.92;9.48;;;12.00;99.90;;;;;;4990902;28;20134;-73
2021/09/06 04:40:58;;;;;;;19.40;9.73;;;12.00;99.90;;;;;;4992294;28;20026;-73
2021/09/06 04:43:23;;;;;;;26.15;9.52;;;12.00;99.90;;;;;;4992143;28;20058;-73
2021/09/06 04:45:49;;;;;;;17.48;9.18;;;12.00;99.90;;;;;;4992302;28;20133;-72
2021/09/06 04:48:15;;;;;;;24.35;9.57;;;12.00;99.90;;;;;;4992085;28;20046;-72
2021/09/06 04:50:40;;;;;;;22.00;10.10;;;12.10;99.90;;;;;;5007738;28;20029;-72
2021/09/06 04:53:06;;;;;;;20.75;10.68;;;12.00;99.90;;;;;;4991958;28;20026;-72
2021/09/06 04:55:32;;;;;;;16.83;10.27;;;12.10;99.90;;;;;;4991796;28;20069;-72
2021/09/06 04:57:57;;;;;;;17.13;9.20;;;12.20;99.90;;;;;;4992080;28;20058;-73
2021/09/06 05:00:23;;;;;;;17.00;9.52;;;12.30;99.90;;;;;;4992026;28;20423;-72
2021/09/06 05:02:49;;;;;;;15.38;8.65;;;12.30;99.90;;;;;;4992403;28;20029;-71
2021/09/06 05:05:15;;;;;;;17.92;9.45;;;12.30;99.90;;;;;;4991821;28;20030;-73
2021/09/06 05:07:41;;;;;;;17.08;8.63;;;12.30;99.90;;;;;;4991689;28;20037;-73
2021/09/06 05:10:06;;;;;;;17.40;8.93;;;12.30;99.90;;;;;;4991954;28;20034;-73
2021/09/06 05:12:32;;;;;;;15.98;8.07;;;12.30;99.90;;;;;;4993108;28;20026;-72
2021/09/06 05:14:57;;;;;;;15.05;8.95;;;12.30;99.90;;;;;;4996143;28;20030;-71
2021/09/06 05:17:23;;;;;;;17.95;8.32;;;12.30;99.90;;;;;;4995887;28;20026;-73
2021/09/06 05:19:49;;;;;;;18.35;8.82;;;12.40;99.90;;;;;;5010780;28;20037;-73
2021/09/06 05:22:14;;;;;;;16.17;8.45;;;12.40;99.90;;;;;;5010973;28;20081;-74
2021/09/06 05:24:40;;;;;;;13.90;7.97;;;12.40;99.90;;;;;;4995695;28;20376;-72
2021/09/06 05:27:05;;;;;;;15.63;9.48;;;12.40;99.90;;;;;;4996048;28;20038;-72
2021/09/06 05:29:31;;;;;;;18.67;9.52;;;12.50;99.90;;;;;;4995657;28;20031;-73
2021/09/06 05:31:56;;;;;;;16.00;8.65;;;12.50;99.90;;;;;;4995547;28;20088;-73
2021/09/06 05:34:22;;;;;;;19.30;9.65;;;12.50;99.90;;;;;;5010710;28;20416;-73
2021/09/06 05:36:47;;;;;;;17.27;8.57;;;12.40;99.90;;;;;;4995410;28;20031;-72
2021/09/06 05:39:13;;;;;;;14.25;8.25;;;12.40;99.90;;;;;;4995275;28;20026;-71
2021/09/06 05:41:39;;;;;;;16.63;8.80;;;12.50;99.90;;;;;;4995713;28;20041;-74
2021/09/06 05:44:07;;;;;;;19.80;8.95;;;12.50;99.90;;;;;;4995202;28;20027;-72
2021/09/06 05:46:33;;;;;;;19.60;8.55;;;12.60;99.90;;;;;;4995083;28;20053;-73
2021/09/06 05:48:58;;;;;;;16.33;9.02;;;12.50;99.90;;;;;;4995254;28;20456;-74
2021/09/06 05:51:25;;;;;;;15.43;8.30;;;12.50;99.90;;;;;;4994985;28;20022;-74
2021/09/06 05:53:51;;;;;;;15.68;8.07;;;12.50;99.90;;;;;;4995366;28;20026;-72
2021/09/06 05:56:20;;;;;;;14.68;8.65;;;12.40;99.90;;;;;;4995099;28;20054;-72
2021/09/06 05:58:46;;;;;;;14.75;8.50;;;12.40;99.90;;;;;;5010002;28;20396;-72
2021/09/06 06:01:12;;;;;;;17.30;9.38;;;12.50;99.90;;;;;;4995203;28;20030;-72
2021/09/06 06:03:37;;;;;;;15.85;8.63;;;12.50;99.90;;;;;;5010772;28;20034;-72
2021/09/06 06:06:03;;;;;;;15.85;8.50;;;12.60;99.90;;;;;;4995993;28;20037;-73
2021/09/06 06:08:28;;;;;;;16.90;8.60;;;12.60;99.90;;;;;;4995765;28;20026;-73
2021/09/06 06:10:54;;;;;;;13.05;7.65;;;12.60;99.90;;;;;;4995332;28;20040;-73
2021/09/06 06:13:20;;;;;;;13.27;7.43;;;12.70;99.90;;;;;;4995357;28;20113;-75
2021/09/06 06:15:45;;;;;;;14.55;7.82;;;12.70;99.90;;;;;;4995615;28;20160;-77
2021/09/06 06:18:11;;;;;;;13.90;8.50;;;12.80;99.90;;;;;;4995318;28;20034;-72
2021/09/06 06:20:36;;;;;;;14.80;8.18;;;12.80;99.90;;;;;;5010729;28;20025;-73
2021/09/06 06:23:02;;;;;;;16.90;7.90;;;13.00;99.90;;;;;;5010634;28;20461;-75
2021/09/06 06:25:28;;;;;;;18.30;9.13;;;13.00;99.90;;;;;;4994953;28;20038;-74
2021/09/06 06:27:54;;;;;;;13.27;7.13;;;13.00;99.90;;;;;;4995243;28;20033;-74
2021/09/06 06:30:20;;;;;;;13.10;7.25;;;13.10;99.90;;;;;;4995278;28;20026;-76
2021/09/06 06:32:46;;;;;;;17.27;7.55;;;13.20;99.90;;;;;;4994086;28;20031;-81
2021/09/06 06:35:11;;;;;;;13.85;7.13;;;13.30;99.90;;;;;;4994749;28;20047;-79
2021/09/06 06:37:40;;;;;;;13.70;7.35;;;13.30;99.90;;;;;;4991922;28;20046;-79
2021/09/06 06:40:06;;;;;;;15.10;8.30;;;13.30;99.90;;;;;;4993716;28;20050;-77
2021/09/06 06:42:32;;;;;;;17.45;7.32;;;13.40;99.90;;;;;;4994768;28;20133;-74
2021/09/06 06:44:57;;;;;;;13.98;7.72;;;13.50;99.90;;;;;;4995306;28;20340;-76
2021/09/06 06:47:23;;;;;;;16.08;8.45;;;13.40;99.90;;;;;;4995039;28;20038;-76
2021/09/06 06:49:49;;;;;;;15.65;8.75;;;13.40;99.90;;;;;;4995193;28;20077;-78
2021/09/06 06:52:15;;;;;;;36.83;8.75;;;13.50;99.90;;;;;;4994458;28;20472;-78
2021/09/06 06:54:40;;;;;;;13.32;6.95;;;13.60;99.90;;;;;;4994578;28;20349;-76
2021/09/06 06:57:06;;;;;;;13.63;7.05;;;13.70;99.90;;;;;;4994916;28;20031;-76
2021/09/06 06:59:33;;;;;;;12.30;7.13;;;13.70;99.90;;;;;;4994674;28;20491;-79
2021/09/06 07:01:59;;;;;;;14.52;8.27;;;13.70;99.90;;;;;;4994568;28;20048;-77
2021/09/06 07:04:24;;;;;;;16.65;9.13;;;13.80;99.90;;;;;;4994343;28;20042;-78
2021/09/06 07:06:50;;;;;;;22.55;9.70;;;13.80;99.90;;;;;;4993193;28;20030;-77
2021/09/06 07:09:16;;;;;;;16.02;9.30;;;13.90;99.90;;;;;;4994300;28;20030;-75
2021/09/06 07:11:41;;;;;;;18.20;8.90;;;14.00;99.90;;;;;;4993520;28;20102;-75
2021/09/06 07:14:07;;;;;;;15.90;8.55;;;14.10;99.90;;;;;;4994428;28;20375;-74
2021/09/06 07:16:32;;;;;;;20.70;9.18;;;14.20;99.90;;;;;;4994426;28;20117;-75
2021/09/06 07:18:58;;;;;;;16.73;9.50;;;14.20;99.90;;;;;;4993174;28;20038;-77
2021/09/06 07:21:24;;;;;;;20.50;10.18;;;14.30;99.90;;;;;;4993844;28;20252;-91
2021/09/06 07:23:51;;;;;;;22.77;10.57;;;14.40;99.90;;;;;;4995402;28;20046;-76
2021/09/06 07:26:16;;;;;;;19.92;10.90;;;14.40;99.90;;;;;;4994074;28;20551;-74
2021/09/06 07:28:42;;;;;;;18.95;9.75;;;14.50;99.90;;;;;;4993640;28;20038;-74
2021/09/06 07:31:10;;;;;;;19.30;9.90;;;14.60;99.90;;;;;;4993952;28;20424;-75
2021/09/06 07:33:35;;;;;;;16.85;10.20;;;14.60;99.90;;;;;;4992678;28;20155;-76
2021/09/06 07:36:01;;;;;;;19.65;11.60;;;14.70;99.90;;;;;;4993463;28;20026;-75
2021/09/06 07:38:27;;;;;;;22.83;11.50;;;14.70;99.90;;;;;;4993771;28;20042;-75
2021/09/06 07:40:55;;;;;;;22.30;11.98;;;14.70;99.90;;;;;;4994004;28;20085;-76
2021/09/06 07:43:23;;;;;;;22.52;11.82;;;14.80;99.90;;;;;;4993671;28;20045;-77
2021/09/06 07:45:49;;;;;;;21.35;12.10;;;15.00;99.90;;;;;;4992784;28;20400;-77
2021/09/06 07:48:15;;;;;;;26.35;12.32;;;15.10;99.90;;;;;;4993653;28;20033;-77
2021/09/06 07:50:42;;;;;;;24.15;12.85;;;15.20;99.90;;;;;;4994074;28;20022;-74
2021/09/06 07:53:08;;;;;;;23.83;12.73;;;15.30;99.90;;;;;;4993514;28;20041;-77
2021/09/06 07:55:34;;;;;;;25.25;13.57;;;15.40;99.90;;;;;;4993732;28;20038;-76
2021/09/06 07:57:59;;;;;;;26.77;15.38;;;15.30;99.90;;;;;;4993495;28;20113;-76
2021/09/06 08:00:25;;;;;;;26.75;15.07;;;15.50;99.90;;;;;;4993490;28;20114;-75
2021/09/06 08:02:51;;;;;;;28.52;14.68;;;15.60;99.90;;;;;;4993452;28;20452;-77
2021/09/06 08:05:22;;;;;;;26.33;14.63;;;15.60;99.90;;;;;;4992745;28;20041;-76
2021/09/06 08:07:48;;;;;;;26.92;14.68;;;15.80;99.90;;;;;;4992738;28;20108;-76
2021/09/06 08:10:14;;;;;;;31.33;15.80;;;15.80;99.90;;;;;;4992914;28;20034;-76
2021/09/06 08:12:40;;;;;;;30.55;15.60;;;15.90;99.90;;;;;;4992991;28;20364;-75
2021/09/06 08:15:07;;;;;;;26.88;13.57;;;16.10;99.90;;;;;;4992750;28;20071;-75
2021/09/06 08:17:34;;;;;;;26.17;14.32;;;16.30;99.90;;;;;;4992704;28;20023;-73
2021/09/06 08:20:08;;;;;;;26.65;14.38;;;16.50;99.90;;;;;;4991147;28;20484;-75
2021/09/06 08:22:34;;;;;;;23.23;14.35;;;16.70;99.90;;;;;;4990812;28;20495;-74
2021/09/06 08:25:05;;;;;;;35.30;16.20;;;17.10;99.90;;;;;;4992172;28;20049;-78
2021/09/06 08:27:30;;;;;;;25.92;15.35;;;17.90;99.50;;;;;;4992137;28;20456;-77
2021/09/06 08:29:56;;;;;;;28.63;15.13;;;18.90;98.80;;;;;;4992907;28;20037;-76
2021/09/06 08:32:22;;;;;;;28.00;15.82;;;20.00;97.60;;;;;;4992459;28;20063;-76
2021/09/06 08:34:52;;;;;;;28.35;14.98;;;21.00;96.30;;;;;;4992220;28;20142;-74
2021/09/06 08:37:22;;;;;;;28.65;15.98;;;21.90;95.30;;;;;;4991430;28;20046;-76
2021/09/06 08:39:47;;;;;;;26.33;15.48;;;22.80;94.30;;;;;;4991560;28;20034;-78
2021/09/06 08:42:13;;;;;;;31.13;16.20;;;23.50;93.00;;;;;;4992375;28;20106;-76
2021/09/06 08:44:39;;;;;;;33.92;17.52;;;23.80;92.00;;;;;;4992690;28;20096;-75
2021/09/06 08:47:07;;;;;;;31.27;16.33;;;24.50;91.20;;;;;;4991789;28;20030;-75
2021/09/06 08:49:33;;;;;;;30.05;17.15;;;24.90;90.10;;;;;;4992239;28;20053;-80
2021/09/06 08:51:59;;;;;;;26.88;15.45;;;25.30;89.10;;;;;;4992232;28;20054;-75
2021/09/06 08:54:25;;;;;;;33.85;17.35;;;25.60;88.70;;;;;;4991836;28;20337;-75
2021/09/06 08:56:50;;;;;;;35.25;17.38;;;26.60;86.30;;;;;;4991594;28;20097;-78
2021/09/06 08:59:20;;;;;;;26.27;16.25;;;27.10;84.90;;;;;;4992161;28;20659;-74
2021/09/06 09:01:51;;;;;;;27.95;16.98;;;27.40;84.30;;;;;;4992327;28;20045;-74
2021/09/06 09:04:18;;;;;;;27.35;17.55;;;28.00;80.50;;;;;;4990799;28;20034;-75
2021/09/06 09:06:51;;;;;;;29.90;17.30;;;28.40;79.50;;;;;;4991989;28;20460;-73
2021/09/06 09:09:29;;;;;;;31.02;17.73;;;28.70;77.70;;;;;;4991865;28;20378;-76
2021/09/06 09:12:15;;;;;;;33.15;18.75;;;28.40;75.40;;;;;;4992744;28;20445;-75
2021/09/06 09:14:46;;;;;;;41.47;20.20;;;29.00;75.10;;;;;;4990251;28;20069;-77
2021/09/06 09:17:12;;;;;;;35.05;20.48;;;29.30;73.60;;;;;;4991422;28;20038;-75
2021/09/06 09:19:38;;;;;;;26.65;17.27;;;29.50;73.60;;;;;;4991563;28;20162;-76
2021/09/06 09:22:07;;;;;;;29.95;15.95;;;29.80;73.90;;;;;;4990266;28;20065;-76
2021/09/06 09:24:36;;;;;;;29.48;16.83;;;29.70;73.50;;;;;;4991475;28;20117;-74
2021/09/06 09:27:04;;;;;;;29.73;17.70;;;29.80;71.20;;;;;;4991796;28;20049;-78
2021/09/06 09:29:30;;;;;;;27.67;16.77;;;29.70;70.10;;;;;;4991714;28;20034;-75
2021/09/06 09:32:02;;;;;;;26.77;16.45;;;29.80;69.70;;;;;;4990731;28;20142;-73
2021/09/06 09:34:30;;;;;;;27.50;17.67;;;30.00;69.60;;;;;;4991205;28;20034;-73
2021/09/06 09:36:57;;;;;;;27.73;16.50;;;29.80;69.10;;;;;;4991607;28;20082;-75
2021/09/06 09:39:23;;;;;;;29.20;16.47;;;30.00;68.80;;;;;;4991836;28;20049;-74
2021/09/06 09:41:52;;;;;;;28.85;16.75;;;30.10;69.20;;;;;;4992095;28;20468;-73
2021/09/06 09:44:26;;;;;;;30.20;16.27;;;30.00;68.90;;;;;;4991472;28;20026;-74
2021/09/06 09:47:02;;;;;;;21.33;14.38;;;30.60;66.40;;;;;;4991304;28;20472;-73
2021/09/06 09:49:31;;;;;;;23.25;14.27;;;30.90;63.30;;;;;;4991559;28;20515;-74
2021/09/06 09:51:57;;;;;;;32.05;15.80;;;30.80;62.30;;;;;;4991370;28;20042;-74
2021/09/06 09:54:23;;;;;;;24.17;13.55;;;30.40;62.20;;;;;;4990028;28;20113;-75
2021/09/06 09:56:49;;;;;;;22.52;13.43;;;30.80;61.90;;;;;;4991778;28;20019;-73
2021/09/06 09:59:18;;;;;;;26.15;15.15;;;30.50;62.40;;;;;;4992112;28;20085;-73
2021/09/06 10:01:49;;;;;;;20.40;12.70;;;30.70;60.40;;;;;;4994880;28;20022;-73
2021/09/06 10:04:20;;;;;;;22.92;13.77;;;31.70;58.90;;;;;;4995078;28;20038;-73
2021/09/06 10:06:46;;;;;;;20.27;13.05;;;31.80;58.00;;;;;;4994786;28;20153;-73
2021/09/06 10:09:14;;;;;;;23.17;12.90;;;32.30;58.40;;;;;;4994567;28;20065;-73
2021/09/06 10:11:42;;;;;;;22.92;12.73;;;32.20;57.40;;;;;;4995202;28;20018;-74
2021/09/06 10:14:19;;;;;;;23.08;12.93;;;32.20;56.70;;;;;;4994282;28;20100;-74
2021/09/06 10:16:59;;;;;;;24.90;13.67;;;31.80;57.50;;;;;;4994340;28;20412;-75
2021/09/06 10:19:41;;;;;;;22.23;13.80;;;32.00;56.80;;;;;;4993550;28;20260;-76
2021/09/06 10:22:18;;;;;;;26.50;13.90;;;32.40;55.80;;;;;;4991974;28;20058;-78
2021/09/06 10:25:04;;;;;;;22.75;13.13;;;32.30;55.20;;;;;;4995133;28;20034;-74
2021/09/06 10:27:30;;;;;;;20.13;12.93;;;32.70;53.60;;;;;;4994516;28;20034;-73
2021/09/06 10:30:09;;;;;;;23.05;16.52;;;32.00;55.10;;;;;;4995322;28;20452;-73
2021/09/06 10:32:47;;;;;;;19.63;12.27;;;31.40;54.60;;;;;;4994936;28;20034;-73
2021/09/06 10:35:21;;;;;;;18.63;12.20;;;31.40;54.90;;;;;;4994400;28;20035;-72
2021/09/06 10:37:59;;;;;;;24.55;14.27;;;31.30;55.20;;;;;;4994832;28;20046;-74
2021/09/06 10:40:26;;;;;;;;;;;31.40;54.90;;;;;;4994934;28;20069;-74
2021/09/06 10:42:51;;;;;;;22.70;12.38;;;31.60;54.10;;;;;;4994537;28;20064;-74
2021/09/06 10:45:17;;;;;;;21.67;12.45;;;31.90;53.70;;;;;;4994696;28;20101;-74
2021/09/06 10:47:43;;;;;;;18.83;11.38;;;32.30;52.20;;;;;;4994777;28;20120;-73
2021/09/06 10:50:22;;;;;;;16.83;11.25;;;33.10;52.40;;;;;;4994349;28;20042;-74
2021/09/06 10:52:49;;;;;;;20.40;12.20;;;33.40;51.00;;;;;;4993211;28;20547;-74
2021/09/06 10:55:17;;;;;;;18.90;10.88;;;32.90;51.00;;;;;;4994395;28;20054;-75
2021/09/06 10:57:44;;;;;;;17.33;10.75;;;33.30;50.00;;;;;;4994114;28;20333;-72
2021/09/06 11:00:15;;;;;;;18.65;12.77;;;33.70;49.50;;;;;;4993941;28;20030;-71
2021/09/06 11:02:42;;;;;;;18.60;11.38;;;33.60;48.10;;;;;;4994613;28;20116;-72
2021/09/06 11:05:09;;;;;;;18.83;11.27;;;33.30;47.20;;;;;;4994179;28;20094;-76
2021/09/06 11:07:35;;;;;;;21.05;12.15;;;33.20;48.30;;;;;;4992737;28;20603;-77
2021/09/06 11:10:08;;;;;;;25.50;14.13;;;33.70;46.60;;;;;;4994137;28;20129;-75
2021/09/06 11:12:34;;;;;;;21.38;12.80;;;33.30;46.40;;;;;;4993893;28;20049;-75
2021/09/06 11:14:59;;;;;;;17.75;12.13;;;32.40;47.00;;;;;;4994423;28;20057;-79
2021/09/06 11:17:26;;;;;;;25.30;11.30;;;32.70;48.00;;;;;;4993926;28;20038;-76
2021/09/06 11:19:57;;;;;;;19.98;11.68;;;32.30;48.20;;;;;;4993864;28;20037;-75
2021/09/06 11:22:25;;;;;;;20.10;13.18;;;31.90;48.20;;;;;;4993236;28;20046;-74
2021/09/06 11:25:04;;;;;;;23.40;13.48;;;30.90;50.20;;;;;;4992770;28;20030;-74
2021/09/06 11:27:34;;;;;;;26.13;15.48;;;30.50;51.10;;;;;;4993713;28;20480;-73
2021/09/06 11:30:01;;;;;;;23.67;14.98;;;30.20;50.80;;;;;;4994236;28;20041;-74
2021/09/06 11:32:28;;;;;;;29.40;15.43;;;29.80;51.80;;;;;;4993953;28;20117;-75
2021/09/06 11:35:09;;;;;;;30.00;17.20;;;29.40;52.40;;;;;;4993837;28;20416;-74
2021/09/06 11:37:36;;;;;;;27.23;16.83;;;28.20;53.00;;;;;;4993180;28;20030;-73
2021/09/06 11:40:03;;;;;;;26.42;16.23;;;28.10;53.90;;;;;;4993563;28;20030;-73
2021/09/06 11:42:29;;;;;;;27.25;16.08;;;27.60;54.40;;;;;;4993303;28;20052;-73
2021/09/06 11:44:57;;;;;;;25.63;14.73;;;27.90;54.60;;;;;;4993833;28;20117;-77
2021/09/06 11:47:23;;;;;;;24.70;13.70;;;27.30;54.10;;;;;;4993360;28;20027;-77
2021/09/06 11:49:57;;;;;;;24.77;15.00;;;27.20;55.00;;;;;;4993055;28;20073;-74
2021/09/06 11:52:36;;;;;;;26.75;14.20;;;27.10;55.40;;;;;;4992736;28;20038;-74
2021/09/06 11:55:09;;;;;;;26.73;15.10;;;27.10;55.60;;;;;;4993175;28;20057;-76
2021/09/06 11:57:35;;;;;;;25.95;14.65;;;26.90;55.30;;;;;;4992211;28;20041;-77
2021/09/06 12:00:01;;;;;;;24.35;13.70;;;26.90;55.10;;;;;;4993919;28;20026;-78
2021/09/06 12:02:27;;;;;;;24.05;13.75;;;26.70;55.30;;;;;;4993250;28;20035;-73
2021/09/06 12:05:11;;;;;;;25.10;13.55;;;26.70;55.70;;;;;;4992925;28;20114;-73
2021/09/06 12:07:52;;;;;;;25.17;12.50;;;26.50;56.10;;;;;;4992648;28;20436;-73
2021/09/06 12:10:27;;;;;;;21.30;12.23;;;26.50;55.40;;;;;;4993083;28;20096;-74
2021/09/06 12:13:03;;;;;;;23.42;12.85;;;26.30;54.80;;;;;;4993084;28;20030;-73
2021/09/06 12:15:31;;;;;;;21.45;12.43;;;26.00;55.20;;;;;;4992921;28;20030;-72
2021/09/06 12:18:14;;;;;;;21.38;11.32;;;25.90;55.60;;;;;;4992549;28;20342;-75
2021/09/06 12:20:41;;;;;;;22.15;11.98;;;25.90;55.20;;;;;;4991279;28;20038;-74
2021/09/06 12:23:12;;;;;;;18.25;10.85;;;25.60;54.70;;;;;;4992848;28;20034;-74
2021/09/06 12:25:38;;;;;;;14.32;8.98;;;25.60;54.80;;;;;;4993275;28;20061;-76
2021/09/06 12:28:22;;;;;;;15.75;7.63;;;25.50;54.50;;;;;;4993272;28;20039;-74
2021/09/06 12:30:59;;;;;;;13.48;8.10;;;25.40;54.00;;;;;;4992508;28;20085;-74